Swords, Ireland
Current Conditions -  °F | °C
As of 10:00 PM on Thursday 18 Dec 2014 (Local Time) from EIDW Reporting Station
Broken Clouds Broken Clouds  
Wind Chill: 39°   Ceiling: 16000
Heat Index: 46°   Visibility: 6mi
Dew Point: 45°   Wind: 22mph
Humidity: 93%   Direction: 250°WSW
Pressure: 29.65"   Gusts: NA
Location:  53.45°N, 6.22°W
Report Text: EIDW 182200Z 25019KT 9999 FEW012 SCT045 BKN160 08/07 Q1004 NOSIG
Loading
Personal Weather Stations






























Interactive Weather Map New forecast layout! Learn more

10-Day Weather Forecast

Advertisements
Track Severe Weather on mobile